Latest Weather Observations for Ngayawili (Elcho Island)

IDD60801

Issued at 6:01 am CST Friday 21 July 2017 (issued every 30 minutes, with the page automatically refreshed every 10 minutes)

About weather observations | Map of weather stations | Latest weather observations for NT | Other Formats
Station Details ID: 014517 Name: NGAYAWILI Lat: -12.00 Lon: 135.57 Height: 8.1 m
Data from the previous 72 hours. | See also: Recent months at Ngayawili (Elcho Island)
Date/Time
CST
Temp
°C
App
Temp
°C
Dew
Point
°C
Rel
Hum
%
Delta-T
°C
Wind Press
QNH
hPa
Press
MSL
hPa
Rain since
9am
mm
Dir  Spd
km/h
Gust
km/h
Spd
kts
Gust
kts
21/06:00am 20.2 19.4 17.2 83 1.8 SSE 17 20 9 11 1012.9 1012.8 0.0
21/05:30am 20.5 19.4 17.3 82 2.0 SSE 19 26 10 14 1012.6 1012.5 0.0
21/05:00am 20.6 20.3 17.4 82 2.0 SSE 15 20 8 11 1012.6 1012.5 0.0
21/04:30am 20.4 20.5 17.4 83 1.8 SSE 13 19 7 10 1012.6 1012.5 0.0
21/04:00am 20.4 20.9 17.4 83 1.8 SSE 11 17 6 9 1012.6 1012.5 0.0
21/03:30am 20.3 20.3 17.1 82 1.9 SSE 13 19 7 10 1012.7 1012.6 0.0
21/03:00am 20.3 20.6 16.9 81 2.1 SSE 11 17 6 9 1013.0 1012.9 0.0
21/02:30am 20.5 20.3 16.7 79 2.3 SSE 13 19 7 10 1013.0 1012.9 0.0
21/02:00am 20.7 21.0 16.9 79 2.3 SSE 11 17 6 9 1013.3 1013.2 0.0
21/01:30am 20.9 20.8 16.9 78 2.4 SSE 13 19 7 10 1013.6 1013.5 0.0
21/01:00am 21.0 21.2 16.8 77 2.6 SSE 11 15 6 8 1013.7 1013.6 0.0
21/12:30am 21.2 21.1 17.0 77 2.6 SSE 13 19 7 10 1013.7 1013.6 0.0
21/12:00am 21.7 21.4 17.3 76 2.7 SSE 15 22 8 12 1013.7 1013.6 0.0
 
Date/Time
CST
Temp
°C
App
Temp
°C
Dew
Point
°C
Rel
Hum
%
Delta-T
°C
Wind Press
QNH
hPa
Press
MSL
hPa
Rain since
9am
mm
Dir  Spd
km/h
Gust
km/h
Spd
kts
Gust
kts
20/11:30pm 21.9 21.9 17.3 75 2.8 SSE 13 19 7 10 1013.6 1013.5 0.0
20/11:00pm 22.3 22.4 17.4 74 3.0 SSE 13 19 7 10 1013.9 1013.8 0.0
20/10:30pm 22.7 22.9 17.6 73 3.2 SSE 13 17 7 9 1013.9 1013.8 0.0
20/10:00pm 23.3 23.3 18.0 72 3.3 SSE 15 22 8 12 1013.8 1013.7 0.0
20/09:30pm 23.4 23.6 17.6 70 3.6 SSE 13 17 7 9 1013.8 1013.7 0.0
20/09:00pm 23.9 23.8 17.9 69 3.8 SE 15 20 8 11 1013.7 1013.6 0.0
20/08:30pm 24.3 24.2 17.8 67 4.1 SE 15 26 8 14 1013.4 1013.3 0.0
20/08:00pm 24.5 24.8 18.0 67 4.1 SE 13 19 7 10 1013.0 1012.9 0.0
20/07:30pm 24.6 25.5 18.3 68 4.0 SE 11 15 6 8 1012.5 1012.4 0.0
20/07:00pm 24.9 25.7 18.1 66 4.3 ESE 11 17 6 9 1012.2 1012.1 0.0
20/06:30pm 25.4 25.7 17.8 62 4.8 ESE 13 22 7 12 1011.8 1011.7 0.0
20/06:00pm 26.2 25.8 18.1 61 5.1 ESE 17 26 9 14 1011.4 1011.3 0.0
20/05:30pm 26.5 26.3 17.6 58 5.6 ESE 15 26 8 14 1011.0 1010.9 0.0
20/05:00pm 27.0 26.4 17.5 56 6.0 ESE 17 33 9 18 1010.6 1010.5 0.0
20/04:30pm 28.0 27.8 17.5 52 6.6 ESE 15 26 8 14 1010.4 1010.3 0.0
20/04:00pm 28.1 27.3 17.0 51 6.9 ESE 17 28 9 15 1010.2 1010.1 0.0
20/03:30pm 28.9 28.1 17.1 49 7.4 E 17 28 9 15 1010.2 1010.1 0.0
20/03:00pm 29.2 28.7 17.7 50 7.3 ESE 17 32 9 17 1010.2 1010.1 0.0
20/02:30pm 29.6 28.1 16.8 46 8.0 ESE 20 32 11 17 1010.4 1010.3 0.0
20/02:00pm 29.8 27.6 15.9 43 8.6 SE 22 35 12 19 1010.7 1010.6 0.0
20/01:30pm 29.7 26.2 15.4 42 8.8 SE 28 37 15 20 1011.1 1011.0 0.0
20/01:00pm 30.3 28.4 16.7 44 8.5 SE 22 35 12 19 1011.5 1011.4 0.0
20/12:30pm 29.8 28.2 16.6 45 8.3 SE 20 32 11 17 1012.0 1011.9 0.0
20/12:00pm 29.1 26.2 16.0 45 8.1 SE 26 39 14 21 1012.3 1012.2 0.0
20/11:30am 28.5 25.9 15.8 46 7.8 SE 24 39 13 21 1013.0 1012.9 0.0
20/11:00am 28.1 25.0 15.7 46 7.6 SE 26 39 14 21 1013.5 1013.4 0.0
20/10:30am 27.3 24.7 16.0 50 6.9 SE 24 35 13 19 1013.9 1013.8 0.0
20/10:00am 26.9 24.4 16.2 52 6.6 SE 24 39 13 21 1013.9 1013.8 0.0
20/09:47am 26.4 23.0 15.8 52 6.5 SE 28 46 15 25 1013.9 1013.8 0.0
20/09:30am 26.0 24.5 16.8 57 5.7 SE 20 41 11 22 1013.9 1013.8 0.0
20/09:00am 24.7 23.2 16.7 61 4.9 SE 20 30 11 16 1014.1 1014.0 0.0
20/08:30am 23.9 22.8 17.4 67 4.0 SE 19 28 10 15 1013.9 1013.8 0.0
20/08:00am 23.2 22.1 17.4 70 3.6 SSE 19 26 10 14 1013.4 1013.3 0.0
20/07:30am 21.7 21.2 17.9 79 2.4 SSE 17 26 9 14 1013.1 1013.0 0.0
20/07:00am 21.3 21.4 18.3 83 1.9 SSE 15 20 8 11 1012.8 1012.7 0.0
20/06:30am 21.2 21.1 18.8 86 1.5 SSE 17 22 9 12 1012.3 1012.2 0.0
20/06:00am 21.1 21.1 18.9 87 1.4 SSE 17 22 9 12 1012.1 1012.0 0.0
20/05:30am 21.2 21.3 19.1 88 1.3 SSE 17 22 9 12 1012.0 1011.9 0.0
20/05:00am 21.3 21.3 19.0 87 1.5 SSE 17 24 9 13 1011.7 1011.6 0.0
20/04:30am 21.4 21.8 19.1 87 1.5 SSE 15 20 8 11 1011.6 1011.5 0.0
20/04:00am 21.6 21.8 19.3 87 1.5 SSE 17 20 9 11 1011.5 1011.4 0.0
20/03:30am 21.4 21.9 19.3 88 1.3 SSE 15 20 8 11 1011.5 1011.4 0.0
20/03:00am 21.6 22.2 19.5 88 1.3 SSE 15 22 8 12 1011.5 1011.4 0.0
20/02:30am 21.5 22.0 19.2 87 1.5 SSE 15 19 8 10 1011.8 1011.7 0.0
20/02:00am 21.7 22.1 19.1 85 1.6 SSE 15 19 8 10 1012.0 1011.9 0.0
20/01:30am 21.7 22.4 18.9 84 1.8 SSE 13 19 7 10 1012.3 1012.2 0.0
20/01:00am 21.6 23.1 18.8 84 1.8 SSE 9 13 5 7 1012.6 1012.5 0.0
20/12:30am 21.9 23.0 18.9 83 1.9 SSE 11 15 6 8 1013.0 1012.9 0.0
20/12:00am 22.1 23.1 18.7 81 2.1 SSE 11 15 6 8 1013.2 1013.1 0.0
 
Date/Time
CST
Temp
°C
App
Temp
°C
Dew
Point
°C
Rel
Hum
%
Delta-T
°C
Wind Press
QNH
hPa
Press
MSL
hPa
Rain since
9am
mm
Dir  Spd
km/h
Gust
km/h
Spd
kts
Gust
kts
19/11:30pm 22.3 23.2 18.5 79 2.4 SSE 11 15 6 8 1013.3 1013.2 0.0
19/11:00pm 22.3 23.0 17.9 76 2.7 SSE 11 15 6 8 1013.4 1013.3 0.0
19/10:30pm 22.5 23.2 17.0 71 3.4 SSE 9 11 5 6 1013.7 1013.6 0.0
19/10:00pm 23.3 23.6 17.1 68 3.8 SSE 11 17 6 9 1013.8 1013.7 0.0
19/09:30pm 23.7 23.9 17.7 69 3.7 SSE 13 17 7 9 1013.7 1013.6 0.0
19/09:00pm 23.8 24.2 17.3 67 4.0 SSE 11 13 6 7 1013.6 1013.5 0.0
19/08:30pm 24.7 25.3 16.7 61 4.9 SSE 9 13 5 7 1013.4 1013.3 0.0
19/08:00pm 25.7 25.7 16.3 56 5.8 SE 11 17 6 9 1013.0 1012.9 0.0
19/07:30pm 25.7 25.8 16.5 56 5.7 SE 11 15 6 8 1012.7 1012.6 0.0
19/07:00pm 26.5 26.3 15.8 51 6.5 SE 11 17 6 9 1012.5 1012.4 0.0
19/06:30pm 27.1 26.7 15.1 47 7.3 SE 11 20 6 11 1012.2 1012.1 0.0
19/06:00pm 27.5 27.2 15.5 48 7.3 ESE 11 19 6 10 1011.9 1011.8 0.0
19/05:30pm 27.9 27.2 15.5 46 7.6 ESE 13 20 7 11 1011.3 1011.2 0.0
19/05:00pm 28.6 26.4 14.4 41 8.6 ESE 19 30 10 16 1010.8 1010.7 0.0
19/04:30pm 28.9 28.4 15.8 45 8.1 ESE 13 20 7 11 1010.7 1010.6 0.0
19/04:00pm 29.6 28.4 16.1 44 8.4 ESE 17 30 9 16 1010.6 1010.5 0.0
19/03:30pm 30.0 28.3 15.7 42 8.8 E 19 32 10 17 1010.4 1010.3 0.0
19/03:00pm 29.9 28.0 15.2 41 9.0 ESE 19 32 10 17 1010.4 1010.3 0.0
19/02:30pm 30.9 28.6 15.7 39 9.4 ESE 22 32 12 17 1010.5 1010.4 0.0
19/02:00pm 31.2 30.0 16.0 40 9.5 ESE 17 33 9 18 1010.8 1010.7 0.0
19/01:30pm 31.4 29.9 17.7 44 8.8 ESE 22 33 12 18 1011.4 1011.3 0.0
19/01:00pm 30.8 29.9 18.2 47 8.1 ESE 20 35 11 19 1011.8 1011.7 0.0
19/12:30pm 30.9 30.5 18.9 48 7.8 ESE 19 35 10 19 1012.3 1012.2 0.0
19/12:00pm 30.2 28.1 18.0 48 7.8 ESE 26 41 14 22 1012.7 1012.6 0.0
19/11:30am 30.1 29.6 17.9 48 7.8 ESE 17 30 9 16 1013.2 1013.1 0.0
19/11:00am 29.8 28.9 18.3 50 7.4 SE 20 32 11 17 1013.6 1013.5 0.0
19/10:30am 28.7 28.5 19.3 56 6.1 ESE 19 28 10 15 1013.9 1013.8 0.0
19/10:00am 27.7 28.1 19.8 62 5.1 SE 17 28 9 15 1014.0 1013.9 0.0
19/09:30am 26.4 27.0 20.3 69 4.0 SE 17 26 9 14 1014.2 1014.2 0.0
19/09:00am 24.9 26.5 20.8 78 2.7 SE 13 20 7 11 1014.3 1014.3 0.0
19/08:30am 23.7 24.8 21.2 86 1.6 SE 17 26 9 14 1014.3 1014.3 0.0
19/08:00am 22.6 24.4 21.2 92 0.9 SE 13 20 7 11 1014.1 1014.0 0.0
19/07:30am 21.9 23.7 21.1 95 0.5 SSE 13 17 7 9 1013.9 1013.8 0.0
19/07:00am 21.4 23.1 20.9 97 0.3 SE 13 17 7 9 1013.6 1013.5 0.0
19/06:30am 21.4 23.5 20.9 97 0.3 SSE 11 15 6 8 1013.2 1013.1 0.0
19/06:00am 21.3 23.7 20.8 97 0.3 SSE 9 13 5 7 1013.0 1012.9 0.0
19/05:30am 21.6 24.1 21.1 97 0.3 SSE 9 13 5 7 1012.8 1012.7 0.0
19/05:00am 21.9 24.5 21.2 96 0.5 SSE 9 13 5 7 1012.8 1012.7 0.0
19/04:30am 22.1 24.4 21.3 95 0.5 SSE 11 15 6 8 1012.8 1012.7 0.0
19/04:00am 22.1 23.9 21.1 94 0.7 SSE 13 17 7 9 1012.9 1012.8 0.0
19/03:30am 22.1 24.3 21.1 94 0.7 SSE 11 13 6 7 1013.0 1012.9 0.0
19/03:00am 22.1 24.5 20.9 93 0.8 SSE 9 13 5 7 1012.9 1012.8 0.0
19/02:30am 22.2 24.2 20.7 91 1.0 SSE 11 13 6 7 1013.1 1013.0 0.0
19/02:00am 22.4 24.6 20.5 89 1.2 SE 9 13 5 7 1013.6 1013.5 0.0
19/01:30am 22.7 24.3 20.0 85 1.7 SE 11 15 6 8 1014.1 1014.0 0.0
19/01:00am 23.1 23.9 19.9 82 2.1 SE 15 20 8 11 1014.3 1014.3 0.0
19/12:30am 23.3 23.8 19.2 78 2.6 SE 15 22 8 12 1014.6 1014.6 0.0
19/12:00am 23.7 23.9 19.4 77 2.7 SE 17 22 9 12 1014.7 1014.7 0.0
 
Date/Time
CST
Temp
°C
App
Temp
°C
Dew
Point
°C
Rel
Hum
%
Delta-T
°C
Wind Press
QNH
hPa
Press
MSL
hPa
Rain since
9am
mm
Dir  Spd
km/h
Gust
km/h
Spd
kts
Gust
kts
18/11:30pm 24.2 24.6 19.9 77 2.8 SSE 17 22 9 12 1014.7 1014.7 0.0
18/11:00pm 24.4 25.1 19.7 75 3.0 SE 15 20 8 11 1015.0 1015.0 0.0
18/10:30pm 24.5 25.6 19.6 74 3.1 SSE 13 17 7 9 1015.2 1015.2 0.0
18/10:00pm 24.9 25.5 19.5 72 3.5 SE 15 22 8 12 1015.3 1015.3 0.0
18/09:30pm 24.8 26.3 19.8 74 3.2 SE 11 17 6 9 1015.2 1015.2 0.0
18/09:00pm 25.0 27.3 20.7 77 2.8 SE 9 13 5 7 1015.0 1015.0 0.0
18/08:30pm 25.5 27.7 20.5 74 3.3 SE 9 11 5 6 1014.6 1014.6 0.0
18/08:00pm 26.1 27.9 20.4 71 3.7 ESE 11 15 6 8 1014.2 1014.2 0.0
18/07:30pm 26.5 28.2 20.1 68 4.2 SE 11 17 6 9 1013.9 1013.8 0.0
18/07:00pm 27.0 28.2 19.9 65 4.6 ESE 13 20 7 11 1013.4 1013.3 0.0
18/06:30pm 27.3 28.6 19.4 62 5.1 ESE 11 19 6 10 1013.1 1013.0 0.0
18/06:00pm 27.9 28.9 19.4 60 5.5 ESE 13 19 7 10 1012.8 1012.7 0.0
18/05:30pm 28.4 29.3 19.3 57 5.9 ESE 13 22 7 12 1012.3 1012.2 0.0
18/05:00pm 28.9 29.3 18.9 54 6.5 ESE 15 28 8 15 1012.1 1012.0 0.0
18/04:30pm 29.4 30.0 18.5 52 7.0 ESE 13 26 7 14 1011.9 1011.8 0.0
18/04:00pm 29.8 30.0 17.6 48 7.8 ESE 13 20 7 11 1011.8 1011.7 0.0
18/03:30pm 30.7 29.4 16.7 43 8.8 E 19 32 10 17 1011.8 1011.7 0.0
18/03:00pm 31.4 29.7 16.2 40 9.5 ESE 20 32 11 17 1011.8 1011.7 0.0
18/02:30pm 31.8 30.6 16.1 38 9.8 ESE 17 28 9 15 1011.8 1011.7 0.0
18/02:00pm 31.5 29.7 15.9 39 9.7 SE 20 30 11 16 1012.0 1011.9 0.0
18/01:30pm 31.6 30.4 17.5 43 9.0 ESE 20 35 11 19 1012.4 1012.3 0.0
18/01:00pm 31.1 29.5 17.4 44 8.7 ESE 22 35 12 19 1012.7 1012.6 0.0
18/12:30pm 30.5 27.9 17.9 47 8.1 SE 28 39 15 21 1013.2 1013.1 0.0
18/12:00pm 30.2 28.3 17.6 46 8.0 SE 24 39 13 21 1013.6 1013.5 0.0
18/11:30am 30.1 28.1 17.5 46 8.0 SE 24 39 13 21 1013.9 1013.8 0.0
18/11:00am 29.7 28.7 18.8 52 7.0 SE 22 35 12 19 1014.4 1014.4 0.0
18/10:30am 28.6 27.3 19.0 56 6.2 SE 24 35 13 19 1014.7 1014.7 0.0
18/10:00am 27.6 26.5 18.6 58 5.8 SE 22 33 12 18 1014.9 1014.9 0.0
18/09:30am 26.9 26.7 19.3 63 4.9 SE 19 30 10 16 1014.9 1014.9 0.0
18/09:00am 25.7 26.0 20.3 72 3.5 SSE 19 24 10 13 1014.8 1014.8 0.0
18/08:30am 24.6 24.6 19.7 74 3.2 SE 19 30 10 16 1014.5 1014.5 0.0
18/08:00am 23.9 23.9 19.8 78 2.6 SE 19 26 10 14 1014.0 1013.9 0.0
18/07:30am 23.4 23.8 19.8 80 2.3 SE 17 24 9 13 1013.7 1013.6 0.0
18/07:00am 23.1 24.0 20.1 83 1.9 SE 15 20 8 11 1013.6 1013.5 0.0
18/06:30am 23.0 23.5 20.1 84 1.9 SE 17 24 9 13 1013.5 1013.4 0.0

Other Formats:

Comma delimited format used in spreadsheet applications
http://www.bom.gov.au/fwo/IDD60801/IDD60801.95146.axf

JavaScript Object Notation format (JSON) in row-major order
http://www.bom.gov.au/fwo/IDD60801/IDD60801.95146.json